createdAt,value
2022-08-26T00:07:12.421Z,99266.98
2022-08-26T00:16:48.976Z,99271.75
2022-08-26T00:26:22.537Z,99270.98
2022-08-26T00:35:53.893Z,99261.79
2022-08-26T00:45:26.604Z,99248.12
2022-08-26T00:55:00.241Z,99253.56
2022-08-26T01:04:35.010Z,99259.91
2022-08-26T01:14:05.849Z,99254.88
2022-08-26T01:23:40.387Z,99252.64
2022-08-26T01:33:14.430Z,99255.00
2022-08-26T01:42:46.618Z,99254.58
2022-08-26T01:52:20.851Z,99259.78
2022-08-26T02:01:57.264Z,99267.18
2022-08-26T02:11:29.920Z,99267.98
2022-08-26T02:21:06.573Z,99268.73
2022-08-26T02:30:38.443Z,99271.66
2022-08-26T02:40:14.521Z,99266.73
2022-08-26T02:49:47.353Z,99264.56
2022-08-26T02:59:20.805Z,99273.31
2022-08-26T03:08:52.421Z,99272.77
2022-08-26T03:18:24.941Z,99269.14
2022-08-26T03:27:59.401Z,99268.73
2022-08-26T03:37:34.856Z,99262.64
2022-08-26T03:47:06.699Z,99256.16
2022-08-26T03:56:40.372Z,99262.36
2022-08-26T04:06:15.832Z,99266.88
2022-08-26T04:15:48.922Z,99263.81
2022-08-26T04:25:21.109Z,99265.91
2022-08-26T04:34:57.376Z,99272.81
2022-08-26T04:44:31.789Z,99277.09
2022-08-26T04:54:06.455Z,99276.58
2022-08-26T05:03:40.841Z,99274.11
2022-08-26T05:13:15.436Z,99279.19
2022-08-26T05:22:49.626Z,99295.05
2022-08-26T05:32:24.051Z,99296.09
2022-08-26T05:41:58.527Z,99298.77
2022-08-26T05:51:31.550Z,99307.19
2022-08-26T06:01:06.557Z,99315.47
2022-08-26T06:10:41.133Z,99315.28
2022-08-26T06:20:16.386Z,99312.28
2022-08-26T06:29:53.089Z,99319.20
2022-08-26T06:39:26.324Z,99319.41
2022-08-26T06:49:01.372Z,99323.14
2022-08-26T06:58:36.556Z,99327.68
2022-08-26T07:08:11.667Z,99322.64
2022-08-26T07:17:48.399Z,99320.56
2022-08-26T07:18:50.820Z,99321.16
2022-08-26T07:28:25.800Z,99323.74
2022-08-26T07:29:29.920Z,99319.31
2022-08-26T07:30:32.394Z,99320.25
2022-08-26T07:31:39.335Z,99322.28
2022-08-26T07:32:37.594Z,99326.09
2022-08-26T07:33:40.194Z,99321.34
2022-08-26T07:34:42.688Z,99319.70
2022-08-26T07:35:45.203Z,99322.14
2022-08-26T07:45:19.082Z,99326.40
2022-08-26T07:46:27.296Z,99329.86
2022-08-26T07:47:25.384Z,99331.27
2022-08-26T07:48:26.689Z,99334.02
2022-08-26T07:49:29.238Z,99332.16
2022-08-26T07:50:47.101Z,99334.27
2022-08-26T07:51:35.689Z,99333.92
2022-08-26T07:52:38.098Z,99336.02
2022-08-26T07:53:40.655Z,99340.23
2022-08-26T07:54:44.688Z,99332.27
2022-08-26T07:55:47.142Z,99336.67
2022-08-26T07:56:49.600Z,99338.16
2022-08-26T07:57:53.679Z,99336.88
2022-08-26T08:07:25.898Z,99332.97
2022-08-26T08:08:29.700Z,99335.18
2022-08-26T08:09:32.042Z,99334.41
2022-08-26T08:10:34.582Z,99330.05
2022-08-26T08:11:38.667Z,99328.69
2022-08-26T08:12:41.116Z,99333.14
2022-08-26T08:13:43.575Z,99335.09
2022-08-26T08:14:46.032Z,99332.42
2022-08-26T08:15:48.555Z,99335.16
2022-08-26T08:16:54.483Z,99333.51
2022-08-26T08:17:59.055Z,99334.43
2022-08-26T08:19:00.639Z,99334.75
2022-08-26T08:20:04.624Z,99334.30
2022-08-26T08:21:23.759Z,99333.84
2022-08-26T08:22:17.643Z,99335.91
2022-08-26T08:23:11.954Z,99336.48
2022-08-26T08:24:16.081Z,99338.62
2022-08-26T08:25:18.422Z,99343.20
2022-08-26T08:26:20.923Z,99343.71
2022-08-26T08:27:24.295Z,99346.75
2022-08-26T08:28:25.997Z,99339.53
2022-08-26T08:29:30.081Z,99340.03
2022-08-26T08:30:32.532Z,99339.75
2022-08-26T08:31:56.388Z,99338.88
2022-08-26T08:32:38.958Z,99339.68
2022-08-26T08:33:41.414Z,99340.17
2022-08-26T08:35:47.985Z,99341.10
2022-08-26T08:45:21.729Z,99336.27
2022-08-26T08:46:24.161Z,99334.02
2022-08-26T08:47:26.646Z,99332.92
2022-08-26T08:48:30.814Z,99329.34
2022-08-26T08:49:33.179Z,99332.97
2022-08-26T08:50:35.787Z,99335.39
2022-08-26T08:51:40.120Z,99331.50
2022-08-26T08:52:42.573Z,99329.97
2022-08-26T08:53:45.071Z,99330.36
2022-08-26T08:54:49.157Z,99330.27
2022-08-26T08:55:51.538Z,99331.17
2022-08-26T08:56:55.628Z,99335.27
2022-08-26T08:58:06.837Z,99332.96
2022-08-26T08:59:02.046Z,99332.84
2022-08-26T09:00:04.519Z,99335.29
2022-08-26T09:01:07.232Z,99331.73
2022-08-26T09:02:09.767Z,99333.95
2022-08-26T09:03:12.251Z,99332.72
2022-08-26T09:04:17.455Z,99335.08
2022-08-26T09:05:21.301Z,99335.72
2022-08-26T09:06:23.663Z,99339.38
2022-08-26T09:07:26.207Z,99336.98
2022-08-26T09:08:28.732Z,99335.73
2022-08-26T09:09:31.246Z,99335.29
2022-08-26T09:10:33.707Z,99336.28
2022-08-26T09:11:36.294Z,99337.78
2022-08-26T09:12:38.785Z,99334.50
2022-08-26T09:13:42.286Z,99338.06
2022-08-26T09:23:14.510Z,99338.79
2022-08-26T09:24:17.161Z,99337.19
2022-08-26T09:25:21.225Z,99340.19
2022-08-26T09:26:24.720Z,99338.70
2022-08-26T09:27:27.802Z,99339.03
2022-08-26T09:28:30.162Z,99343.06
2022-08-26T09:29:32.653Z,99343.55
2022-08-26T09:30:35.190Z,99343.91
2022-08-26T09:31:37.709Z,99343.72
2022-08-26T09:32:41.804Z,99345.63
2022-08-26T09:33:44.225Z,99344.98
2022-08-26T09:34:46.709Z,99345.58
2022-08-26T09:35:50.842Z,99343.69
2022-08-26T09:36:53.172Z,99341.91
2022-08-26T09:37:55.651Z,99348.88
2022-08-26T09:38:58.169Z,99348.02
2022-08-26T09:40:00.693Z,99343.36
2022-08-26T09:41:03.243Z,99344.87
2022-08-26T09:42:07.214Z,99341.45
2022-08-26T09:43:11.275Z,99343.38
2022-08-26T09:44:15.587Z,99340.42
2022-08-26T09:45:17.591Z,99339.60
2022-08-26T09:46:20.290Z,99337.52
2022-08-26T09:47:22.649Z,99336.84
2022-08-26T09:48:25.173Z,99334.78
2022-08-26T09:49:28.601Z,99333.01
2022-08-26T09:50:30.336Z,99327.94
2022-08-26T09:51:32.849Z,99328.95
2022-08-26T09:52:37.026Z,99328.86
2022-08-26T09:53:40.987Z,99329.21
2022-08-26T09:54:43.400Z,99326.28
2022-08-26T09:55:47.662Z,99328.39
2022-08-26T09:56:51.781Z,99326.84
2022-08-26T09:57:55.125Z,99328.17
2022-08-26T09:58:58.551Z,99325.16
2022-08-26T10:00:00.769Z,99323.53
2022-08-26T10:01:03.376Z,99323.85
2022-08-26T10:02:06.002Z,99325.17
2022-08-26T10:03:08.521Z,99323.05
2022-08-26T10:04:11.104Z,99322.84
2022-08-26T10:05:13.488Z,99317.63
2022-08-26T10:06:16.021Z,99317.72
2022-08-26T10:07:20.127Z,99313.03
2022-08-26T10:08:23.058Z,99314.80
2022-08-26T10:09:24.998Z,99317.50
2022-08-26T10:10:27.490Z,99316.36
2022-08-26T10:11:31.673Z,99317.34
2022-08-26T10:12:34.163Z,99316.59
2022-08-26T10:13:36.625Z,99315.92
2022-08-26T10:23:11.176Z,99302.56
2022-08-26T10:24:13.350Z,99301.86
2022-08-26T10:25:15.995Z,99298.20
2022-08-26T10:26:18.538Z,99299.97
2022-08-26T10:27:21.885Z,99297.98
2022-08-26T10:28:25.297Z,99296.21
2022-08-26T10:29:29.265Z,99287.80
2022-08-26T10:30:34.274Z,99289.39
2022-08-26T10:31:40.456Z,99287.97
2022-08-26T10:32:41.720Z,99289.60
2022-08-26T10:33:44.134Z,99286.99
2022-08-26T10:34:46.658Z,99288.79
2022-08-26T10:35:49.106Z,99283.28
2022-08-26T10:37:14.019Z,99286.28
2022-08-26T10:38:06.843Z,99286.01
2022-08-26T10:39:00.759Z,99285.81
2022-08-26T10:40:03.123Z,99283.52
2022-08-26T10:41:09.855Z,99284.80
2022-08-26T10:42:09.702Z,99284.63
2022-08-26T10:43:12.112Z,99279.92
2022-08-26T10:44:16.214Z,99281.55
2022-08-26T10:45:20.128Z,99279.50
2022-08-26T10:46:27.250Z,99274.79
2022-08-26T10:47:28.051Z,99275.28
2022-08-26T10:48:35.356Z,99275.25
2022-08-26T10:49:35.976Z,99274.95
2022-08-26T10:50:38.383Z,99272.95
2022-08-26T10:51:42.534Z,99277.33
2022-08-26T10:52:46.560Z,99274.53
2022-08-26T10:53:51.362Z,99279.53
2022-08-26T10:54:51.511Z,99277.46
2022-08-26T10:55:54.031Z,99278.74
2022-08-26T10:56:58.125Z,99273.39
2022-08-26T10:58:07.265Z,99273.69
2022-08-26T10:59:02.976Z,99275.76
2022-08-26T11:00:07.102Z,99277.56
2022-08-26T11:01:10.105Z,99275.16
2022-08-26T11:02:13.583Z,99277.80
2022-08-26T11:03:21.756Z,99273.15
2022-08-26T11:04:19.919Z,99270.07
2022-08-26T11:05:22.441Z,99269.34
2022-08-26T11:06:25.012Z,99266.32
2022-08-26T11:07:27.479Z,99269.03
2022-08-26T11:08:29.917Z,99268.40
2022-08-26T11:09:32.563Z,99265.91
2022-08-26T11:10:34.974Z,99263.36
2022-08-26T11:11:38.990Z,99261.27
2022-08-26T11:12:42.875Z,99260.28
2022-08-26T11:13:45.202Z,99263.73
2022-08-26T11:14:53.830Z,99260.85
2022-08-26T11:15:50.204Z,99254.84
2022-08-26T11:25:29.268Z,99260.30
2022-08-26T11:26:35.507Z,99255.58
2022-08-26T11:27:29.324Z,99257.46
2022-08-26T11:28:34.345Z,99251.55
2022-08-26T11:29:40.321Z,99250.78
2022-08-26T11:30:45.091Z,99251.80
2022-08-26T11:31:49.071Z,99249.71
2022-08-26T11:32:51.437Z,99249.78
2022-08-26T11:33:54.189Z,99253.84
2022-08-26T11:34:56.511Z,99246.34
2022-08-26T11:35:58.962Z,99247.61
2022-08-26T11:37:05.140Z,99248.92
2022-08-26T11:38:09.101Z,99248.22
2022-08-26T11:39:11.429Z,99251.53
2022-08-26T11:40:15.550Z,99248.32
2022-08-26T11:41:17.934Z,99244.00
2022-08-26T11:42:20.448Z,99241.48
2022-08-26T11:43:22.930Z,99249.12
2022-08-26T11:44:25.502Z,99243.19
2022-08-26T11:45:29.636Z,99238.05
2022-08-26T11:46:32.029Z,99238.70
2022-08-26T11:47:34.536Z,99238.58
2022-08-26T11:48:38.692Z,99230.58
2022-08-26T11:49:41.724Z,99230.66
2022-08-26T11:50:45.235Z,99234.36
2022-08-26T11:51:48.323Z,99232.72
2022-08-26T11:52:50.202Z,99233.02
2022-08-26T11:53:54.328Z,99228.67
2022-08-26T11:54:56.695Z,99224.69
2022-08-26T11:55:59.238Z,99221.58
2022-08-26T11:57:07.413Z,99221.91
2022-08-26T11:58:07.634Z,99222.73
2022-08-26T11:59:11.336Z,99221.55
2022-08-26T12:00:15.806Z,99223.27
2022-08-26T12:01:16.283Z,99226.84
2022-08-26T12:02:20.366Z,99218.38
2022-08-26T12:03:22.957Z,99223.09
2022-08-26T12:04:25.393Z,99219.81
2022-08-26T12:05:29.520Z,99218.93
2022-08-26T12:06:30.374Z,99215.13
2022-08-26T12:07:32.941Z,99213.14
2022-08-26T12:08:35.423Z,99213.15
2022-08-26T12:09:37.999Z,99213.39
2022-08-26T12:10:40.562Z,99210.27
2022-08-26T12:11:44.678Z,99208.38
2022-08-26T12:12:47.058Z,99209.20
2022-08-26T12:13:49.604Z,99210.05
2022-08-26T12:14:53.768Z,99207.74
2022-08-26T12:15:57.814Z,99209.75
2022-08-26T12:17:00.240Z,99209.48
2022-08-26T12:18:04.387Z,99210.77
2022-08-26T12:19:06.831Z,99211.14
2022-08-26T12:20:11.145Z,99208.13
2022-08-26T12:21:13.500Z,99206.66
2022-08-26T12:22:17.581Z,99204.41
2022-08-26T12:23:21.619Z,99203.59
2022-08-26T12:24:26.281Z,99207.84
2022-08-26T12:25:28.157Z,99203.31
2022-08-26T12:26:30.718Z,99207.44
2022-08-26T12:27:33.296Z,99206.78
2022-08-26T12:28:37.340Z,99204.67
2022-08-26T12:29:39.695Z,99206.08
2022-08-26T12:30:43.775Z,99202.41
2022-08-26T12:31:46.225Z,99200.09
2022-08-26T12:32:51.132Z,99202.08
2022-08-26T12:33:52.793Z,99200.64
2022-08-26T12:34:55.387Z,99200.39
2022-08-26T12:35:57.815Z,99202.20
2022-08-26T12:38:04.483Z,99201.55
2022-08-26T12:39:06.919Z,99204.05
2022-08-26T12:40:09.419Z,99210.05
2022-08-26T12:41:13.504Z,99209.77
2022-08-26T12:42:17.499Z,99206.93
2022-08-26T12:43:21.513Z,99208.87
2022-08-26T12:44:23.843Z,99207.58
2022-08-26T12:45:26.424Z,99206.11
2022-08-26T12:46:28.842Z,99207.75
2022-08-26T12:47:35.241Z,99204.61
2022-08-26T12:48:33.815Z,99202.81
2022-08-26T12:49:37.864Z,99202.42
2022-08-26T12:50:41.828Z,99201.63
2022-08-26T12:51:45.864Z,99204.28
2022-08-26T12:52:48.180Z,99204.75
2022-08-26T12:53:50.642Z,99208.38
2022-08-26T12:54:56.606Z,99207.80
2022-08-26T12:55:55.650Z,99210.83
2022-08-26T12:56:59.746Z,99206.97
2022-08-26T12:58:02.170Z,99211.88
2022-08-26T12:59:06.366Z,99216.21
2022-08-26T13:00:08.604Z,99216.67
2022-08-26T13:01:11.188Z,99214.92
2022-08-26T13:02:13.742Z,99218.88
2022-08-26T13:03:17.637Z,99216.74
2022-08-26T13:04:20.013Z,99216.89
2022-08-26T13:05:22.535Z,99220.00
2022-08-26T13:06:25.031Z,99219.47
2022-08-26T13:07:27.517Z,99224.73
2022-08-26T13:08:30.029Z,99232.86
2022-08-26T13:09:32.533Z,99228.06
2022-08-26T13:10:36.554Z,99216.50
2022-08-26T13:11:38.933Z,99211.13
2022-08-26T13:12:41.386Z,99215.22
2022-08-26T13:13:43.882Z,99214.80
2022-08-26T13:14:46.378Z,99210.95
2022-08-26T13:15:48.971Z,99214.97
2022-08-26T13:16:51.322Z,99213.51
2022-08-26T13:17:55.482Z,99206.30
2022-08-26T13:18:59.366Z,99205.62
2022-08-26T13:20:03.989Z,99204.00
2022-08-26T13:21:05.822Z,99205.55
2022-08-26T13:22:08.201Z,99213.59
2022-08-26T13:23:10.783Z,99210.45
2022-08-26T13:24:13.036Z,99214.82
2022-08-26T13:25:19.643Z,99205.23
2022-08-26T13:26:19.571Z,99210.36
2022-08-26T13:27:22.021Z,99207.84
2022-08-26T13:28:24.484Z,99216.09
2022-08-26T13:29:27.004Z,99214.07
2022-08-26T13:30:29.525Z,99208.80
2022-08-26T13:31:32.079Z,99210.23
2022-08-26T13:32:34.541Z,99202.41
2022-08-26T13:33:37.075Z,99196.70
2022-08-26T13:34:39.607Z,99191.80
2022-08-26T13:35:43.707Z,99185.26
2022-08-26T13:36:46.180Z,99182.13
2022-08-26T13:37:50.304Z,99177.38
2022-08-26T13:38:54.371Z,99178.42
2022-08-26T13:39:58.479Z,99182.89
2022-08-26T13:41:00.714Z,99177.82
2022-08-26T13:42:03.197Z,99177.73
2022-08-26T13:43:05.716Z,99176.97
2022-08-26T13:44:08.299Z,99172.54
2022-08-26T13:45:12.431Z,99171.42
2022-08-26T13:46:14.755Z,99170.23
2022-08-26T13:47:18.850Z,99167.27
2022-08-26T13:48:23.300Z,99166.84
2022-08-26T13:49:25.312Z,99165.81
2022-08-26T13:50:27.634Z,99169.00
2022-08-26T13:51:30.159Z,99167.97
2022-08-26T13:52:32.599Z,99169.73
2022-08-26T13:53:36.704Z,99167.24
2022-08-26T13:54:39.082Z,99165.53
2022-08-26T13:55:41.591Z,99164.25
2022-08-26T13:56:44.091Z,99165.31
2022-08-26T13:57:46.579Z,99164.47
2022-08-26T13:58:49.528Z,99163.44
2022-08-26T13:59:51.762Z,99165.08
2022-08-26T14:00:54.348Z,99165.50
2022-08-26T14:01:58.407Z,99165.67
2022-08-26T14:03:02.451Z,99168.30
2022-08-26T14:04:04.798Z,99169.98
2022-08-26T14:05:07.265Z,99171.88
2022-08-26T14:06:09.731Z,99167.91
2022-08-26T14:07:12.248Z,99167.70
2022-08-26T14:08:17.441Z,99167.96
2022-08-26T14:09:19.614Z,99171.78
2022-08-26T14:10:22.019Z,99166.88
2022-08-26T14:11:26.162Z,99164.63
2022-08-26T14:12:28.482Z,99165.88
2022-08-26T14:13:30.968Z,99164.67
2022-08-26T14:23:21.006Z,99173.77
2022-08-26T14:24:07.965Z,99174.06
2022-08-26T14:25:12.101Z,99169.75
2022-08-26T14:26:19.069Z,99178.29
2022-08-26T14:27:20.164Z,99177.70
2022-08-26T14:28:22.546Z,99174.81
2022-08-26T14:29:26.620Z,99178.16
2022-08-26T14:30:28.955Z,99178.91
2022-08-26T14:31:31.483Z,99173.52
2022-08-26T14:32:33.953Z,99171.76
2022-08-26T14:33:38.087Z,99172.27
2022-08-26T14:34:42.027Z,99171.81
2022-08-26T14:35:47.920Z,99167.38
2022-08-26T14:36:48.566Z,99167.38
2022-08-26T14:37:50.925Z,99163.02
2022-08-26T14:38:55.043Z,99167.48
2022-08-26T14:39:57.468Z,99165.02
2022-08-26T14:40:59.926Z,99161.39
2022-08-26T14:42:02.429Z,99159.67
2022-08-26T14:43:06.506Z,99159.63
2022-08-26T14:44:08.895Z,99160.30
2022-08-26T14:45:13.025Z,99165.50
2022-08-26T14:46:15.454Z,99162.05
2022-08-26T14:47:17.912Z,99164.49
2022-08-26T14:48:20.414Z,99165.72
2022-08-26T14:49:24.484Z,99162.44
2022-08-26T14:50:26.868Z,99170.30
2022-08-26T14:51:29.408Z,99169.44
2022-08-26T14:52:31.895Z,99172.91
2022-08-26T14:53:35.977Z,99173.52
2022-08-26T14:54:39.964Z,99178.47
2022-08-26T14:55:42.314Z,99183.31
2022-08-26T14:56:46.360Z,99187.36
2022-08-26T14:57:50.357Z,99186.48
2022-08-26T14:58:52.686Z,99192.64
2022-08-26T14:59:55.216Z,99186.33
2022-08-26T15:00:57.766Z,99181.89
2022-08-26T15:02:00.387Z,99178.01
2022-08-26T15:03:02.956Z,99180.75
2022-08-26T15:04:05.288Z,99175.16
2022-08-26T15:05:07.791Z,99177.22
2022-08-26T15:06:10.290Z,99176.09
2022-08-26T15:07:12.934Z,99170.27
2022-08-26T15:08:15.309Z,99169.19
2022-08-26T15:09:17.805Z,99171.63
2022-08-26T15:10:20.366Z,99172.45
2022-08-26T15:11:22.855Z,99173.55
2022-08-26T15:12:25.464Z,99174.69
2022-08-26T15:13:27.949Z,99173.55
2022-08-26T15:14:33.019Z,99175.27
2022-08-26T15:15:36.011Z,99173.08
2022-08-26T15:16:39.501Z,99176.89
2022-08-26T15:17:43.365Z,99177.79
2022-08-26T15:18:45.752Z,99185.73
2022-08-26T15:19:50.023Z,99192.38
2022-08-26T15:20:53.964Z,99187.47
2022-08-26T15:21:56.397Z,99193.03
2022-08-26T15:23:02.142Z,99192.65
2022-08-26T15:24:01.334Z,99190.16
2022-08-26T15:25:03.815Z,99193.23
2022-08-26T15:26:06.341Z,99198.53
2022-08-26T15:27:10.440Z,99204.14
2022-08-26T15:28:12.811Z,99200.67
2022-08-26T15:29:16.916Z,99207.91
2022-08-26T15:30:19.380Z,99210.88
2022-08-26T15:31:21.943Z,99212.09
2022-08-26T15:32:24.376Z,99216.34
2022-08-26T15:33:26.883Z,99213.99
2022-08-26T15:34:30.947Z,99217.66
2022-08-26T15:35:35.654Z,99214.39
2022-08-26T15:36:37.394Z,99215.10
2022-08-26T15:37:39.926Z,99219.84
2022-08-26T15:38:42.428Z,99224.37
2022-08-26T15:39:44.964Z,99223.81
2022-08-26T15:40:49.062Z,99226.83
2022-08-26T15:41:51.444Z,99228.80
2022-08-26T15:43:06.084Z,99228.29
2022-08-26T15:43:59.503Z,99229.67
2022-08-26T15:45:01.920Z,99233.76
2022-08-26T15:46:04.465Z,99233.64
2022-08-26T15:47:06.922Z,99234.28
2022-08-26T15:48:09.376Z,99230.80
2022-08-26T15:49:17.507Z,99231.50
2022-08-26T15:50:15.873Z,99229.13
2022-08-26T15:51:18.358Z,99229.13
2022-08-26T15:52:20.880Z,99232.09
2022-08-26T15:53:24.963Z,99229.18
2022-08-26T15:54:27.338Z,99225.83
2022-08-26T15:55:29.824Z,99224.92
2022-08-26T15:56:32.320Z,99226.48
2022-08-26T15:57:34.824Z,99225.23
2022-08-26T15:58:37.350Z,99220.34
2022-08-26T15:59:41.421Z,99219.86
2022-08-26T16:00:43.784Z,99217.45
2022-08-26T16:01:47.887Z,99219.09
2022-08-26T16:02:51.789Z,99216.94
2022-08-26T16:03:54.210Z,99215.91
2022-08-26T16:04:56.664Z,99213.51
2022-08-26T16:06:00.800Z,99214.92
2022-08-26T16:07:03.197Z,99215.86
2022-08-26T16:08:07.401Z,99216.21
2022-08-26T16:09:11.317Z,99216.55
2022-08-26T16:10:13.641Z,99219.22
2022-08-26T16:11:17.721Z,99219.56
2022-08-26T16:12:20.089Z,99220.34
2022-08-26T16:13:22.561Z,99224.16
2022-08-26T16:14:25.075Z,99225.63
2022-08-26T16:15:27.588Z,99227.47
2022-08-26T16:16:31.798Z,99231.73
2022-08-26T16:17:34.074Z,99236.46
2022-08-26T16:18:39.317Z,99240.16
2022-08-26T16:19:41.548Z,99240.50
2022-08-26T16:20:44.106Z,99236.29
2022-08-26T16:21:48.190Z,99237.06
2022-08-26T16:22:50.512Z,99243.38
2022-08-26T16:23:54.635Z,99243.20
2022-08-26T16:24:57.088Z,99243.77
2022-08-26T16:26:01.097Z,99247.63
2022-08-26T16:27:05.080Z,99249.73
2022-08-26T16:28:11.402Z,99248.88
2022-08-26T16:29:09.979Z,99253.47
2022-08-26T16:30:14.094Z,99248.17
2022-08-26T16:31:16.519Z,99247.91
2022-08-26T16:32:18.995Z,99244.98
2022-08-26T16:33:29.190Z,99252.43
2022-08-26T16:34:23.961Z,99253.46
2022-08-26T16:35:26.438Z,99255.39
2022-08-26T16:36:28.922Z,99255.78
2022-08-26T16:37:34.459Z,99262.19
2022-08-26T16:38:37.114Z,99261.07
2022-08-26T16:39:45.032Z,99263.66
2022-08-26T16:40:41.960Z,99266.37
2022-08-26T16:41:44.423Z,99265.03
2022-08-26T16:42:46.937Z,99264.34
2022-08-26T16:43:49.466Z,99265.30
2022-08-26T16:44:51.952Z,99267.06
2022-08-26T16:45:54.617Z,99266.59
2022-08-26T16:46:58.897Z,99272.18
2022-08-26T16:48:02.627Z,99267.62
2022-08-26T16:49:06.508Z,99262.71
2022-08-26T16:50:08.884Z,99263.45
2022-08-26T16:51:11.457Z,99261.51
2022-08-26T16:52:14.075Z,99265.55
2022-08-26T16:53:16.422Z,99260.95
2022-08-26T16:54:20.491Z,99261.30
2022-08-26T16:55:24.485Z,99259.63
2022-08-26T16:56:27.634Z,99254.59
2022-08-26T16:57:30.975Z,99259.33
2022-08-26T16:58:34.893Z,99261.52
2022-08-26T16:59:37.297Z,99256.80
2022-08-26T17:00:39.777Z,99261.64
2022-08-26T17:01:42.330Z,99258.25
2022-08-26T17:02:44.815Z,99260.00
2022-08-26T17:03:48.864Z,99257.86
2022-08-26T17:04:51.382Z,99255.75
2022-08-26T17:05:55.386Z,99255.55
2022-08-26T17:06:59.404Z,99257.69
2022-08-26T17:08:01.809Z,99250.91
2022-08-26T17:09:05.884Z,99256.88
2022-08-26T17:10:08.225Z,99255.97
2022-08-26T17:11:12.331Z,99255.40
2022-08-26T17:12:16.270Z,99253.63
2022-08-26T17:13:26.004Z,99256.13
2022-08-26T17:14:22.579Z,99248.17
2022-08-26T17:15:25.137Z,99248.89
2022-08-26T17:16:29.241Z,99250.82
2022-08-26T17:17:31.569Z,99252.20
2022-08-26T17:18:34.071Z,99246.99
2022-08-26T17:19:40.781Z,99244.28
2022-08-26T17:20:42.161Z,99243.28
2022-08-26T17:21:44.495Z,99244.91
2022-08-26T17:22:48.617Z,99242.72
2022-08-26T17:23:50.960Z,99246.66
2022-08-26T17:24:55.066Z,99244.21
2022-08-26T17:25:59.058Z,99246.82
2022-08-26T17:27:01.479Z,99239.95
2022-08-26T17:28:05.863Z,99244.16
2022-08-26T17:29:09.570Z,99246.08
2022-08-26T17:30:13.556Z,99253.16
2022-08-26T17:31:16.212Z,99251.69
2022-08-26T17:32:20.273Z,99252.13
2022-08-26T17:33:24.557Z,99256.41
2022-08-26T17:34:26.648Z,99259.80
2022-08-26T17:35:29.131Z,99254.64
2022-08-26T17:36:33.191Z,99262.83
2022-08-26T17:37:35.560Z,99259.91
2022-08-26T17:38:38.051Z,99257.90
2022-08-26T17:39:42.098Z,99262.73
2022-08-26T17:40:44.488Z,99253.38
2022-08-26T17:41:48.555Z,99254.75
2022-08-26T17:42:50.947Z,99263.62
2022-08-26T17:43:53.677Z,99269.56
2022-08-26T17:44:56.112Z,99265.13
2022-08-26T17:45:58.653Z,99261.89
2022-08-26T17:47:02.696Z,99264.89
2022-08-26T17:48:05.137Z,99265.69
2022-08-26T17:49:07.598Z,99264.95
2022-08-26T17:58:39.998Z,99276.97
2022-08-26T17:59:44.272Z,99281.11
2022-08-26T18:00:48.313Z,99282.05
2022-08-26T18:01:50.855Z,99281.20
2022-08-26T18:02:55.060Z,99281.42
2022-08-26T18:03:59.645Z,99282.55
2022-08-26T18:13:30.113Z,99273.27
2022-08-26T18:23:04.454Z,99269.31
2022-08-26T18:32:38.840Z,99276.35
2022-08-26T18:42:14.735Z,99290.22
2022-08-26T18:43:17.184Z,99291.69
2022-08-26T18:52:52.102Z,99302.19
2022-08-26T19:02:24.944Z,99302.74
2022-08-26T19:11:59.962Z,99304.88
2022-08-26T19:21:33.123Z,99324.61
2022-08-26T19:31:08.670Z,99348.16
2022-08-26T19:40:42.724Z,99355.76
2022-08-26T19:50:15.651Z,99353.33
2022-08-26T19:59:50.036Z,99352.55
2022-08-26T20:09:26.165Z,99349.43
2022-08-26T20:18:56.603Z,99358.64
2022-08-26T20:19:59.110Z,99362.30
2022-08-26T20:29:32.010Z,99367.71
2022-08-26T20:39:06.059Z,99369.03
2022-08-26T20:48:38.414Z,99363.36
2022-08-26T20:58:14.208Z,99369.41
2022-08-26T21:07:45.137Z,99369.91
2022-08-26T21:17:21.389Z,99372.75
2022-08-26T21:26:54.650Z,99361.37
2022-08-26T21:36:24.725Z,99363.40
2022-08-26T21:45:58.327Z,99388.72
2022-08-26T21:55:30.936Z,99391.41
2022-08-26T22:05:03.149Z,99402.36
2022-08-26T22:14:36.802Z,99403.24
2022-08-26T22:24:08.806Z,99405.84
2022-08-26T22:33:39.993Z,99405.88
2022-08-26T22:43:13.265Z,99408.18
2022-08-26T22:52:45.370Z,99408.92
2022-08-26T23:02:20.341Z,99405.98
2022-08-26T23:11:54.301Z,99417.04
2022-08-26T23:21:26.765Z,99417.84
2022-08-26T23:31:02.483Z,99412.03
2022-08-26T23:40:32.107Z,99413.97
2022-08-26T23:50:05.961Z,99410.37
2022-08-26T23:59:39.509Z,99399.39
